createdAt,value
2022-12-13T00:01:47.874Z,94480.44
2022-12-13T00:04:16.391Z,94462.88
2022-12-13T00:06:44.799Z,94476.38
2022-12-13T00:09:15.040Z,94475.69
2022-12-13T00:11:45.100Z,94462.88
2022-12-13T00:14:14.778Z,94463.31
2022-12-13T00:16:46.946Z,94473.75
2022-12-13T00:19:15.750Z,94475.66
2022-12-13T00:21:43.992Z,94474.91
2022-12-13T00:24:12.325Z,94483.72
2022-12-13T00:26:40.902Z,94484.22
2022-12-13T00:29:12.161Z,94480.69
2022-12-13T00:34:28.961Z,94494.69
2022-12-13T00:36:59.377Z,94497.88
2022-12-13T00:39:28.110Z,94502.09
2022-12-13T00:41:56.573Z,94494.88
2022-12-13T00:44:26.480Z,94498.22
2022-12-13T00:46:54.810Z,94498.06
2022-12-13T00:49:23.235Z,94503.59
2022-12-13T00:51:51.391Z,94508.06
2022-12-13T00:54:19.870Z,94506.97
2022-12-13T00:56:48.171Z,94505.16
2022-12-13T00:59:16.923Z,94501.19
2022-12-13T01:01:46.765Z,94509.84
2022-12-13T01:04:15.189Z,94497.50
2022-12-13T01:06:45.778Z,94501.78
2022-12-13T01:09:19.263Z,94498.38
2022-12-13T01:11:48.071Z,94499.66
2022-12-13T01:14:16.565Z,94505.97
2022-12-13T01:16:46.305Z,94503.53
2022-12-13T01:19:14.578Z,94503.44
2022-12-13T01:21:42.861Z,94492.00
2022-12-13T01:24:11.165Z,94513.91
2022-12-13T01:26:39.395Z,94507.56
2022-12-13T01:29:08.769Z,94510.78
2022-12-13T01:31:41.588Z,94505.00
2022-12-13T01:34:12.338Z,94505.03
2022-12-13T01:36:41.955Z,94449.59
2022-12-13T01:39:15.216Z,94376.75
2022-12-13T01:41:45.287Z,94477.97
2022-12-13T01:44:46.363Z,94494.75
2022-12-13T01:47:17.961Z,94494.50
2022-12-13T01:49:48.001Z,94478.78
2022-12-13T01:52:18.227Z,94494.94
2022-12-13T01:54:49.948Z,94509.28
2022-12-13T01:57:22.726Z,94513.84
2022-12-13T01:59:53.202Z,94461.50
2022-12-13T02:02:21.892Z,94520.19
2022-12-13T02:04:56.769Z,94521.03
2022-12-13T02:07:29.400Z,94517.91
2022-12-13T02:10:00.906Z,94512.31
2022-12-13T02:12:31.245Z,94517.59
2022-12-13T02:15:01.218Z,94520.47
2022-12-13T02:17:43.907Z,94517.31
2022-12-13T02:20:44.510Z,94527.34
2022-12-13T02:23:35.171Z,94376.34
2022-12-13T02:26:28.563Z,94509.22
2022-12-13T02:29:12.393Z,94534.47
2022-12-13T02:32:09.116Z,94532.81
2022-12-13T02:34:41.487Z,94530.50
2022-12-13T02:37:19.350Z,94534.47
2022-12-13T02:39:53.096Z,94532.63
2022-12-13T02:42:26.747Z,94531.59
2022-12-13T02:44:59.026Z,94403.13
2022-12-13T02:47:30.645Z,94536.34
2022-12-13T02:50:03.122Z,94532.63
2022-12-13T02:52:33.570Z,94436.84
2022-12-13T02:55:07.374Z,94527.09
2022-12-13T02:57:37.364Z,94539.50
2022-12-13T03:00:08.907Z,94561.28
2022-12-13T03:02:46.777Z,94449.47
2022-12-13T03:05:43.659Z,94537.91
2022-12-13T03:08:22.989Z,94545.53
2022-12-13T03:11:03.041Z,94527.88
2022-12-13T03:13:38.192Z,94553.97
2022-12-13T03:16:13.177Z,94551.06
2022-12-13T03:18:43.392Z,94539.97
2022-12-13T03:21:13.516Z,94561.56
2022-12-13T03:23:42.040Z,94576.53
2022-12-13T03:26:12.511Z,94556.03
2022-12-13T03:28:41.252Z,94561.88
2022-12-13T03:31:10.229Z,94545.22
2022-12-13T03:33:38.933Z,94557.63
2022-12-13T03:36:10.819Z,94563.09
2022-12-13T03:38:40.170Z,94551.03
2022-12-13T03:41:13.406Z,94562.66
2022-12-13T03:43:42.092Z,94563.16
2022-12-13T03:46:11.231Z,94538.50
2022-12-13T03:48:39.626Z,94563.09
2022-12-13T03:51:09.288Z,94553.06
2022-12-13T03:53:37.636Z,94566.28
2022-12-13T03:56:07.812Z,94563.19
2022-12-13T03:58:38.218Z,94572.03
2022-12-13T04:01:08.439Z,94569.38
2022-12-13T04:03:37.707Z,94568.44
2022-12-13T04:06:06.489Z,94569.97
2022-12-13T04:08:36.594Z,94568.09
2022-12-13T04:11:25.883Z,94577.91
2022-12-13T04:13:53.590Z,94566.84
2022-12-13T04:16:22.448Z,94556.81
2022-12-13T04:18:50.943Z,94570.00
2022-12-13T04:21:19.135Z,94580.81
2022-12-13T04:23:48.852Z,94578.19
2022-12-13T04:26:17.188Z,94579.78
2022-12-13T04:28:50.847Z,94583.19
2022-12-13T04:31:22.594Z,94580.03
2022-12-13T04:33:50.858Z,94583.19
2022-12-13T04:36:32.097Z,94590.31
2022-12-13T04:39:03.161Z,94581.09
2022-12-13T04:41:36.203Z,94584.50
2022-12-13T04:44:05.459Z,94577.69
2022-12-13T04:46:33.922Z,94524.22
2022-12-13T04:49:05.492Z,94600.88
2022-12-13T04:51:33.875Z,94607.69
2022-12-13T04:54:23.341Z,94618.75
2022-12-13T04:56:51.845Z,94625.63
2022-12-13T04:59:20.196Z,94617.72
2022-12-13T05:01:48.451Z,94624.56
2022-12-13T05:04:16.736Z,94631.16
2022-12-13T05:06:44.932Z,94611.13
2022-12-13T05:09:14.562Z,94633.22
2022-12-13T05:11:45.955Z,94631.91
2022-12-13T05:14:14.509Z,94642.47
2022-12-13T05:16:51.721Z,94640.63
2022-12-13T05:19:20.026Z,94634.81
2022-12-13T05:21:49.205Z,94607.94
2022-12-13T05:24:19.182Z,94649.00
2022-12-13T05:26:47.510Z,94657.22
2022-12-13T05:29:15.762Z,94447.66
2022-12-13T05:31:44.132Z,94654.97
2022-12-13T05:34:12.387Z,94661.03
2022-12-13T05:36:40.675Z,94495.72
2022-12-13T05:39:28.362Z,94653.19
2022-12-13T05:42:01.477Z,94651.59
2022-12-13T05:44:31.797Z,94662.75
2022-12-13T05:47:01.969Z,94664.84
2022-12-13T05:49:31.372Z,94672.25
2022-12-13T05:51:59.747Z,94690.16
2022-12-13T05:54:28.086Z,94685.69
2022-12-13T05:56:59.005Z,94688.56
2022-12-13T05:59:27.259Z,94697.50
2022-12-13T06:01:55.581Z,94692.44
2022-12-13T06:04:23.860Z,94696.94
2022-12-13T06:06:53.062Z,94691.22
2022-12-13T06:09:24.712Z,94662.50
2022-12-13T06:12:01.125Z,94700.13
2022-12-13T06:14:31.176Z,94695.69
2022-12-13T06:16:59.450Z,94703.59
2022-12-13T06:19:28.094Z,94707.56
2022-12-13T06:21:57.080Z,94698.56
2022-12-13T06:24:25.390Z,94702.81
2022-12-13T06:26:53.644Z,94703.59
2022-12-13T06:29:25.545Z,94709.91
2022-12-13T06:32:01.170Z,94713.28
2022-12-13T06:34:33.090Z,94717.53
2022-12-13T06:37:02.462Z,94712.28
2022-12-13T06:39:32.475Z,94718.09
2022-12-13T06:42:08.689Z,94702.31
2022-12-13T06:44:37.208Z,94716.25
2022-12-13T06:47:12.156Z,94717.59
2022-12-13T06:49:44.131Z,94717.06
2022-12-13T06:52:14.745Z,94700.69
2022-12-13T06:54:43.592Z,94711.00
2022-12-13T06:57:12.203Z,94709.94
2022-12-13T06:59:41.355Z,94724.94
2022-12-13T07:02:25.276Z,94719.16
2022-12-13T07:04:55.909Z,94738.66
2022-12-13T07:07:26.042Z,94751.84
2022-12-13T07:09:54.913Z,94745.00
2022-12-13T07:12:23.583Z,94743.91
2022-12-13T07:14:51.881Z,94678.53
2022-12-13T07:17:33.255Z,94750.75
2022-12-13T07:20:03.755Z,94748.66
2022-12-13T07:22:34.591Z,94759.00
2022-12-13T07:25:06.090Z,94761.06
2022-12-13T07:27:34.776Z,94757.66
2022-12-13T07:30:03.710Z,94763.47
2022-12-13T07:32:33.358Z,94770.88
2022-12-13T07:35:01.576Z,94767.97
2022-12-13T07:37:31.175Z,94685.94
2022-12-13T07:40:04.415Z,94766.09
2022-12-13T07:42:33.246Z,94769.75
2022-12-13T07:45:01.585Z,94728.06
2022-12-13T07:47:32.625Z,94785.06
2022-12-13T07:50:01.422Z,94733.16
2022-12-13T07:52:29.950Z,94775.56
2022-12-13T07:54:58.243Z,94783.59
2022-12-13T07:57:26.540Z,94772.66
2022-12-13T07:59:54.823Z,94806.22
2022-12-13T08:02:23.072Z,94771.94
2022-12-13T08:04:54.992Z,94809.22
2022-12-13T08:07:23.796Z,94814.56
2022-12-13T08:09:53.291Z,94799.06
2022-12-13T08:12:22.797Z,94754.50
2022-12-13T08:14:53.093Z,94825.41
2022-12-13T08:17:22.079Z,94823.41
2022-12-13T08:19:50.539Z,94821.25
2022-12-13T08:22:24.201Z,94823.56
2022-12-13T08:24:52.830Z,94711.56
2022-12-13T08:27:22.189Z,94815.44
2022-12-13T08:29:50.395Z,94813.03
2022-12-13T08:32:18.712Z,94806.84
2022-12-13T08:34:47.083Z,94814.69
2022-12-13T08:37:15.532Z,94807.91
2022-12-13T08:39:45.924Z,94801.66
2022-12-13T08:42:18.941Z,94813.53
2022-12-13T08:44:50.219Z,94811.16
2022-12-13T08:47:23.479Z,94820.34
2022-12-13T08:50:02.196Z,94805.84
2022-12-13T08:52:31.894Z,94798.44
2022-12-13T08:55:01.717Z,94803.66
2022-12-13T08:57:29.902Z,94773.22
2022-12-13T08:59:58.232Z,94796.47
2022-12-13T09:02:26.489Z,94772.31
2022-12-13T09:04:54.757Z,94735.91
2022-12-13T09:07:23.079Z,94618.88
2022-12-13T09:09:55.131Z,94785.13
2022-12-13T09:12:30.561Z,94735.81
2022-12-13T09:15:01.667Z,94768.41
2022-12-13T09:17:36.364Z,94570.72
2022-12-13T09:20:10.150Z,94768.72
2022-12-13T09:23:01.541Z,94666.75
2022-12-13T09:25:37.246Z,94741.41
2022-12-13T09:28:09.629Z,94752.63
2022-12-13T09:30:40.534Z,94737.91
2022-12-13T09:33:18.127Z,94724.84
2022-12-13T09:35:57.048Z,94725.59
2022-12-13T09:38:25.260Z,94739.13
2022-12-13T09:40:58.501Z,94736.69
2022-12-13T09:43:42.624Z,94732.38
2022-12-13T09:46:34.255Z,94724.38
2022-12-13T09:49:04.847Z,94689.63
2022-12-13T09:51:47.303Z,94720.66
2022-12-13T09:54:21.937Z,94652.34
2022-12-13T09:56:51.805Z,94696.38
2022-12-13T09:59:28.309Z,94701.56
2022-12-13T10:01:56.943Z,94695.81
2022-12-13T10:04:25.251Z,94698.44
2022-12-13T10:06:55.231Z,94697.75
2022-12-13T10:09:24.223Z,94689.50
2022-12-13T10:11:54.911Z,94698.25
2022-12-13T10:14:31.587Z,94673.63
2022-12-13T10:17:04.927Z,94693.47
2022-12-13T10:19:36.811Z,94688.75
2022-12-13T10:22:07.566Z,94676.31
2022-12-13T10:24:51.100Z,94672.44
2022-12-13T10:27:21.610Z,94678.59
2022-12-13T10:30:03.934Z,94680.06
2022-12-13T10:32:37.642Z,94671.81
2022-12-13T10:35:21.835Z,94669.03
2022-12-13T10:37:50.277Z,94664.13
2022-12-13T10:40:33.391Z,94643.91
2022-12-13T10:43:14.695Z,94663.56
2022-12-13T10:45:45.621Z,94657.91
2022-12-13T10:48:22.390Z,94660.03
2022-12-13T10:51:02.784Z,94664.38
2022-12-13T10:53:34.318Z,94661.50
2022-12-13T10:56:03.956Z,94654.75
2022-12-13T10:58:40.604Z,94661.97
2022-12-13T11:01:24.068Z,94656.31
2022-12-13T11:04:02.526Z,94647.66
2022-12-13T11:06:43.483Z,94645.84
2022-12-13T11:09:23.448Z,94644.47
2022-12-13T11:11:58.276Z,94600.88
2022-12-13T11:14:31.633Z,94631.19
2022-12-13T11:17:08.783Z,94633.25
2022-12-13T11:19:41.335Z,94613.47
2022-12-13T11:22:11.971Z,94641.06
2022-12-13T11:24:43.588Z,94644.69
2022-12-13T11:27:38.479Z,94639.25
2022-12-13T11:30:16.546Z,94622.66
2022-12-13T11:33:04.447Z,94628.09
2022-12-13T11:35:44.302Z,94631.09
2022-12-13T11:38:27.861Z,94624.91
2022-12-13T11:41:00.462Z,94628.13
2022-12-13T11:43:35.415Z,94619.88
2022-12-13T11:46:14.704Z,94618.31
2022-12-13T11:48:48.500Z,94604.47
2022-12-13T11:51:24.097Z,94496.78
2022-12-13T11:53:59.271Z,94586.47
2022-12-13T11:56:29.920Z,94566.16
2022-12-13T11:59:16.199Z,94565.09
2022-12-13T12:02:04.885Z,94554.22
2022-12-13T12:04:41.135Z,94378.88
2022-12-13T12:07:31.881Z,94569.16
2022-12-13T12:10:12.249Z,94568.31
2022-12-13T12:12:45.374Z,94568.06
2022-12-13T12:15:16.991Z,94559.16
2022-12-13T12:17:45.345Z,94549.47
2022-12-13T12:20:23.285Z,94537.19
2022-12-13T12:23:08.200Z,94555.13
2022-12-13T12:25:46.801Z,94558.66
2022-12-13T12:28:29.500Z,94558.81
2022-12-13T12:31:10.725Z,94544.34
2022-12-13T12:33:53.293Z,94556.25
2022-12-13T12:36:39.983Z,94563.69
2022-12-13T12:39:28.413Z,94562.47
2022-12-13T12:42:12.712Z,94573.94
2022-12-13T12:44:56.007Z,94575.34
2022-12-13T12:48:42.660Z,94602.00
2022-12-13T12:50:43.023Z,94608.25
2022-12-13T12:53:30.466Z,94627.88
2022-12-13T12:56:10.405Z,94646.41
2022-12-13T12:58:45.198Z,94644.34
2022-12-13T13:01:33.445Z,94629.06
2022-12-13T13:04:09.128Z,94648.28
2022-12-13T13:06:40.467Z,94660.38
2022-12-13T13:09:13.048Z,94655.78
2022-12-13T13:11:44.009Z,94643.84
2022-12-13T13:14:33.580Z,94633.06
2022-12-13T13:17:22.736Z,94645.00
2022-12-13T13:20:01.591Z,94634.16
2022-12-13T13:22:43.409Z,94632.72
2022-12-13T13:25:31.327Z,94627.91
2022-12-13T13:28:14.950Z,94659.22
2022-12-13T13:31:03.419Z,94633.81
2022-12-13T13:33:46.671Z,94645.81
2022-12-13T13:36:47.879Z,94660.44
2022-12-13T13:39:20.568Z,94667.75
2022-12-13T13:42:09.084Z,94669.72
2022-12-13T13:45:06.830Z,94663.47
2022-12-13T13:47:43.232Z,94648.19
2022-12-13T13:50:47.030Z,94650.03
2022-12-13T13:53:45.258Z,94632.31
2022-12-13T13:56:38.225Z,94637.34
2022-12-13T13:59:45.094Z,94645.94
2022-12-13T14:02:42.517Z,94646.06
2022-12-13T14:05:49.096Z,94644.25
2022-12-13T14:08:30.144Z,94674.56
2022-12-13T14:11:27.991Z,94653.66
2022-12-13T14:14:38.665Z,94647.97
2022-12-13T14:17:48.841Z,94647.41
2022-12-13T14:20:52.882Z,94651.59
2022-12-13T14:23:38.401Z,94663.41
2022-12-13T14:26:37.182Z,94668.50
2022-12-13T14:29:13.170Z,94669.00
2022-12-13T14:31:44.291Z,94632.69
2022-12-13T14:34:22.378Z,94681.47
2022-12-13T14:36:57.382Z,94679.19
2022-12-13T14:39:29.646Z,94664.38
2022-12-13T14:42:01.020Z,94684.41
2022-12-13T14:44:31.460Z,94702.88
2022-12-13T14:47:02.365Z,94695.47
2022-12-13T14:49:33.984Z,94704.66
2022-12-13T14:52:07.041Z,94698.63
2022-12-13T14:54:46.272Z,94692.13
2022-12-13T14:57:20.606Z,94673.84
2022-12-13T14:59:52.728Z,94694.88
2022-12-13T15:02:31.114Z,94647.69
2022-12-13T15:05:09.068Z,94684.97
2022-12-13T15:07:39.769Z,94700.34
2022-12-13T15:10:22.388Z,94701.69
2022-12-13T15:12:52.275Z,94703.28
2022-12-13T15:15:26.933Z,94691.69
2022-12-13T15:18:18.414Z,94674.56
2022-12-13T15:20:50.062Z,94700.38
2022-12-13T15:23:30.984Z,94687.09
2022-12-13T15:26:03.564Z,94724.72
2022-12-13T15:28:35.584Z,94718.28
2022-12-13T15:31:06.261Z,94686.09
2022-12-13T15:33:39.477Z,94722.47
2022-12-13T15:36:16.980Z,94732.22
2022-12-13T15:38:51.817Z,94741.94
2022-12-13T15:41:24.059Z,94733.34
2022-12-13T15:43:55.201Z,94750.97
2022-12-13T15:46:28.269Z,94750.50
2022-12-13T15:48:58.679Z,94726.03
2022-12-13T15:51:28.886Z,94584.72
2022-12-13T15:54:05.006Z,94748.66
2022-12-13T15:56:38.088Z,94745.19
2022-12-13T15:59:08.067Z,94764.94
2022-12-13T16:01:38.057Z,94746.03
2022-12-13T16:04:07.447Z,94770.78
2022-12-13T16:06:36.599Z,94604.53
2022-12-13T16:09:08.022Z,94744.75
2022-12-13T16:11:50.360Z,94796.09
2022-12-13T16:14:49.394Z,94784.03
2022-12-13T16:17:24.723Z,94762.97
2022-12-13T16:19:53.843Z,94794.56
2022-12-13T16:22:24.219Z,94797.47
2022-12-13T16:24:53.555Z,94803.31
2022-12-13T16:27:23.589Z,94799.34
2022-12-13T16:29:51.794Z,94706.50
2022-12-13T16:32:20.246Z,94758.44
2022-12-13T16:34:53.719Z,94810.44
2022-12-13T16:37:28.473Z,94810.94
2022-12-13T16:39:56.986Z,94636.44
2022-12-13T16:42:27.526Z,94804.88
2022-12-13T16:45:18.138Z,94804.84
2022-12-13T16:47:49.744Z,94762.94
2022-12-13T16:50:21.511Z,94790.84
2022-12-13T16:52:49.959Z,94793.78
2022-12-13T16:55:18.561Z,94760.53
2022-12-13T16:57:58.209Z,94807.28
2022-12-13T17:00:27.939Z,94743.69
2022-12-13T17:02:58.058Z,94815.69
2022-12-13T17:05:27.992Z,94820.19
2022-12-13T17:07:57.752Z,94826.25
2022-12-13T17:10:26.236Z,94630.50
2022-12-13T17:12:55.165Z,94822.53
2022-12-13T17:15:28.031Z,94831.25
2022-12-13T17:17:56.498Z,94834.44
2022-12-13T17:20:25.862Z,94718.59
2022-12-13T17:22:57.773Z,94858.16
2022-12-13T17:25:26.607Z,94814.09
2022-12-13T17:27:55.008Z,94855.28
2022-12-13T17:30:25.217Z,94846.28
2022-12-13T17:32:53.485Z,94820.22
2022-12-13T17:35:21.827Z,94834.88
2022-12-13T17:37:51.212Z,94868.19
2022-12-13T17:40:19.714Z,94803.28
2022-12-13T17:42:50.991Z,94876.75
2022-12-13T17:45:20.873Z,94874.47
2022-12-13T17:47:50.979Z,94872.94
2022-12-13T17:50:23.159Z,94881.16
2022-12-13T17:52:51.344Z,94882.97
2022-12-13T17:55:19.637Z,94871.31
2022-12-13T17:57:48.164Z,94840.16
2022-12-13T18:00:21.349Z,94876.47
2022-12-13T18:02:55.830Z,94883.19
2022-12-13T18:05:26.551Z,94784.22
2022-12-13T18:07:54.953Z,94815.03
2022-12-13T18:10:27.925Z,94838.38
2022-12-13T18:12:58.959Z,94899.06
2022-12-13T18:15:27.337Z,94815.38
2022-12-13T18:18:11.098Z,94904.81
2022-12-13T18:20:40.188Z,94791.81
2022-12-13T18:23:08.917Z,94911.47
2022-12-13T18:25:37.796Z,94758.91
2022-12-13T18:28:06.995Z,94910.59
2022-12-13T18:30:35.386Z,94908.53
2022-12-13T18:33:05.502Z,94868.88
2022-12-13T18:35:34.498Z,94922.69
2022-12-13T18:38:02.840Z,94916.38
2022-12-13T18:40:32.572Z,94883.66
2022-12-13T18:43:00.903Z,94923.06
2022-12-13T18:45:29.225Z,94846.53
2022-12-13T18:47:58.583Z,94916.03
2022-12-13T18:50:28.233Z,94889.88
2022-12-13T18:52:56.511Z,94770.34
2022-12-13T18:55:24.828Z,94898.59
2022-12-13T18:57:53.264Z,94813.84
2022-12-13T19:00:22.465Z,94853.72
2022-12-13T19:02:50.807Z,94907.81
2022-12-13T19:05:19.252Z,94877.44
2022-12-13T19:07:48.910Z,94916.25
2022-12-13T19:10:17.293Z,94921.31
2022-12-13T19:12:45.775Z,94718.88
2022-12-13T19:15:15.307Z,94799.84
2022-12-13T19:17:43.647Z,94913.53
2022-12-13T19:20:13.035Z,94771.81
2022-12-13T19:22:41.397Z,94933.69
2022-12-13T19:25:11.798Z,94923.59
2022-12-13T19:27:40.235Z,94921.53
2022-12-13T19:30:09.663Z,94920.19
2022-12-13T19:32:42.607Z,94897.47
2022-12-13T19:35:16.836Z,94922.78
2022-12-13T19:37:48.395Z,94925.22
2022-12-13T19:40:18.743Z,94940.25
2022-12-13T19:42:47.450Z,94934.41
2022-12-13T19:45:15.998Z,94936.00
2022-12-13T19:47:44.885Z,94771.25
2022-12-13T19:50:17.847Z,94917.84
2022-12-13T19:52:47.071Z,94938.97
2022-12-13T19:55:15.556Z,94867.63
2022-12-13T19:57:45.483Z,94950.22
2022-12-13T20:00:15.316Z,94943.06
2022-12-13T20:02:43.925Z,94948.31
2022-12-13T20:05:12.204Z,94950.44
2022-12-13T20:07:40.932Z,94884.44
2022-12-13T20:10:10.428Z,94911.09
2022-12-13T20:12:41.092Z,94901.63
2022-12-13T20:15:11.881Z,94957.50
2022-12-13T20:17:41.511Z,94958.88
2022-12-13T20:20:10.984Z,94951.03
2022-12-13T20:22:39.559Z,94904.22
2022-12-13T20:25:09.534Z,94948.66
2022-12-13T20:27:38.053Z,94938.91
2022-12-13T20:30:11.164Z,94945.00
2022-12-13T20:32:39.687Z,94942.38
2022-12-13T20:35:08.828Z,94935.75
2022-12-13T20:37:40.328Z,94953.91
2022-12-13T20:40:09.678Z,94944.97
2022-12-13T20:42:39.033Z,94950.00
2022-12-13T20:45:08.543Z,94952.63
2022-12-13T20:47:38.718Z,94787.59
2022-12-13T20:50:08.055Z,94809.16
2022-12-13T20:52:36.667Z,94932.00
2022-12-13T20:55:06.082Z,94951.56
2022-12-13T20:57:34.411Z,94787.06
2022-12-13T21:00:02.760Z,94959.66
2022-12-13T21:02:31.154Z,94934.03
2022-12-13T21:05:00.763Z,94960.81
2022-12-13T21:07:42.881Z,94964.94
2022-12-13T21:10:16.841Z,94967.84
2022-12-13T21:12:45.347Z,94880.63
2022-12-13T21:15:13.669Z,94902.84
2022-12-13T21:17:42.671Z,94967.59
2022-12-13T21:20:12.792Z,94967.81
2022-12-13T21:22:41.175Z,94965.66
2022-12-13T21:25:10.348Z,94972.84
2022-12-13T21:27:38.632Z,94974.38
2022-12-13T21:30:08.287Z,94976.06
2022-12-13T21:32:37.863Z,94949.75
2022-12-13T21:35:08.768Z,94812.16
2022-12-13T21:37:38.427Z,94969.38
2022-12-13T21:40:08.754Z,94959.69
2022-12-13T21:42:37.030Z,94962.19
2022-12-13T21:45:05.798Z,94263.88
2022-12-13T21:47:34.155Z,94951.13
2022-12-13T21:50:02.490Z,94960.44
2022-12-13T21:52:30.685Z,94961.44
2022-12-13T21:55:30.033Z,94967.56
2022-12-13T21:58:07.918Z,94967.25
2022-12-13T22:00:37.197Z,94969.44
2022-12-13T22:03:05.823Z,94943.19
2022-12-13T22:05:34.490Z,94901.66
2022-12-13T22:08:02.792Z,94975.81
2022-12-13T22:10:32.563Z,94903.06
2022-12-13T22:13:00.824Z,94987.41
2022-12-13T22:15:29.079Z,94972.69
2022-12-13T22:17:58.095Z,95005.03
2022-12-13T22:20:26.564Z,94908.59
2022-12-13T22:22:54.881Z,94988.50
2022-12-13T22:25:23.184Z,95018.41
2022-12-13T22:27:53.657Z,94987.31
2022-12-13T22:30:21.920Z,94979.94
2022-12-13T22:32:50.164Z,94982.25
2022-12-13T22:35:18.658Z,94966.38
2022-12-13T22:37:50.095Z,94925.19
2022-12-13T22:40:18.541Z,94954.00
2022-12-13T22:42:48.296Z,94973.59
2022-12-13T22:45:18.375Z,94948.25
2022-12-13T22:47:46.704Z,94824.03
2022-12-13T22:50:15.444Z,94972.59
2022-12-13T22:52:43.652Z,94964.94
2022-12-13T22:55:12.085Z,94986.47
2022-12-13T22:57:40.432Z,94963.97
2022-12-13T23:00:10.468Z,94986.06
2022-12-13T23:02:40.343Z,94953.59
2022-12-13T23:05:09.174Z,94991.03
2022-12-13T23:07:37.455Z,94816.97
2022-12-13T23:10:27.432Z,94999.63
2022-12-13T23:13:03.693Z,94969.06
2022-12-13T23:15:32.485Z,94999.75
2022-12-13T23:18:02.208Z,94993.09
2022-12-13T23:20:30.495Z,94927.03
2022-12-13T23:22:59.613Z,94804.75
2022-12-13T23:25:27.844Z,94982.91
2022-12-13T23:27:56.170Z,94992.19
2022-12-13T23:30:24.471Z,94964.19
2022-12-13T23:32:52.714Z,94996.81
2022-12-13T23:35:22.399Z,95002.06
2022-12-13T23:37:50.760Z,94910.47
2022-12-13T23:40:19.144Z,94990.69
2022-12-13T23:42:48.085Z,94964.81
2022-12-13T23:45:18.651Z,94968.09
2022-12-13T23:47:46.840Z,94998.63
2022-12-13T23:50:17.693Z,94975.69
2022-12-13T23:52:47.354Z,94997.03
2022-12-13T23:55:15.767Z,94941.38
2022-12-13T23:57:44.093Z,95004.31
